Paint Rock, Alabama
Current Conditions -  °F | °C
As of 5:55 AM on Friday 19 Dec 2014 (Local Time) from K4A6 Reporting Station
Broken Clouds Broken Clouds  
Wind Chill: 28°   Ceiling: 4600
Heat Index: 28°   Visibility: 7mi
Dew Point: 28°   Wind: 0mph
Humidity: 100%   Direction: NA
Pressure: 30.21"   Gusts: NA
Location:  34.66°N, 86.33°W
Report Text: K4A6 191155Z AUTO 00000KT 7SM BKN046 M02/M02 A3021 RMK AO2
Loading
Personal Weather Stations






























Interactive Weather Map New forecast layout! Learn more

10-Day Weather Forecast

Advertisements
Track Severe Weather on mobile